createdAt,value
2023-03-02T00:02:17.936Z,14.30
2023-03-02T00:04:48.374Z,14.13
2023-03-02T00:07:19.510Z,12.80
2023-03-02T00:09:51.342Z,13.57
2023-03-02T00:12:17.764Z,13.50
2023-03-02T00:14:44.751Z,14.88
2023-03-02T00:17:14.266Z,13.65
2023-03-02T00:19:40.688Z,13.48
2023-03-02T00:22:07.592Z,16.37
2023-03-02T00:24:38.019Z,15.23
2023-03-02T00:27:07.542Z,14.73
2023-03-02T00:29:33.925Z,15.48
2023-03-02T00:32:11.248Z,13.98
2023-03-02T00:34:44.106Z,15.23
2023-03-02T00:37:10.478Z,14.23
2023-03-02T00:39:36.896Z,15.85
2023-03-02T00:42:06.943Z,14.52
2023-03-02T00:44:36.504Z,15.52
2023-03-02T00:47:04.778Z,16.43
2023-03-02T00:49:31.791Z,17.02
2023-03-02T00:51:58.204Z,15.63
2023-03-02T00:54:24.635Z,16.02
2023-03-02T00:56:51.073Z,15.48
2023-03-02T00:59:38.183Z,16.30
2023-03-02T01:02:06.091Z,16.15
2023-03-02T01:04:40.693Z,15.38
2023-03-02T01:07:30.170Z,15.30
2023-03-02T01:09:59.625Z,17.38
2023-03-02T01:12:28.614Z,15.93
2023-03-02T01:14:55.075Z,16.13
2023-03-02T01:17:31.037Z,14.55
2023-03-02T01:19:57.452Z,16.15
2023-03-02T01:22:27.473Z,16.23
2023-03-02T01:24:56.932Z,16.47
2023-03-02T01:27:23.443Z,18.95
2023-03-02T01:30:03.130Z,14.65
2023-03-02T01:32:33.048Z,15.70
2023-03-02T01:35:02.887Z,16.73
2023-03-02T01:37:29.248Z,16.13
2023-03-02T01:39:58.734Z,16.48
2023-03-02T01:42:28.585Z,15.07
2023-03-02T01:45:02.089Z,15.48
2023-03-02T01:47:33.839Z,16.10
2023-03-02T01:50:04.975Z,15.77
2023-03-02T01:52:38.270Z,16.15
2023-03-02T01:55:08.441Z,14.82
2023-03-02T02:00:38.258Z,16.38
2023-03-02T02:03:20.994Z,16.30
2023-03-02T02:06:24.148Z,15.23
2023-03-02T02:08:54.801Z,15.88
2023-03-02T02:11:24.698Z,16.08
2023-03-02T02:13:58.657Z,16.33
2023-03-02T02:16:26.608Z,14.83
2023-03-02T02:19:01.163Z,16.20
2023-03-02T02:21:28.725Z,16.45
2023-03-02T02:24:03.819Z,16.58
2023-03-02T02:26:51.291Z,15.27
2023-03-02T02:29:27.235Z,17.23
2023-03-02T02:32:26.163Z,15.15
2023-03-02T02:35:18.151Z,14.93
2023-03-02T02:38:03.258Z,15.48
2023-03-02T02:40:48.710Z,15.27
2023-03-02T02:43:20.521Z,14.47
2023-03-02T02:45:52.713Z,14.75
2023-03-02T02:48:24.533Z,14.98
2023-03-02T02:51:02.358Z,15.10
2023-03-02T02:53:46.530Z,15.55
2023-03-02T02:56:14.863Z,14.77
2023-03-02T02:58:50.422Z,13.93
2023-03-02T03:01:28.375Z,15.70
2023-03-02T03:04:14.274Z,14.35
2023-03-02T03:07:00.150Z,14.60
2023-03-02T03:09:27.484Z,14.60
2023-03-02T03:12:04.884Z,14.32
2023-03-02T03:14:39.381Z,15.00
2023-03-02T03:17:12.369Z,15.20
2023-03-02T03:19:44.638Z,14.43
2023-03-02T03:22:16.360Z,14.23
2023-03-02T03:24:44.446Z,15.05
2023-03-02T03:27:14.642Z,15.65
2023-03-02T03:29:48.328Z,13.90
2023-03-02T03:32:18.247Z,14.65
2023-03-02T03:34:48.067Z,12.53
2023-03-02T03:37:17.325Z,14.68
2023-03-02T03:39:49.205Z,13.75
2023-03-02T03:42:15.681Z,14.77
2023-03-02T03:47:26.905Z,13.43
2023-03-02T03:49:56.494Z,13.60
2023-03-02T03:52:32.645Z,14.15
2023-03-02T03:55:00.933Z,13.68
2023-03-02T03:57:31.998Z,13.10
2023-03-02T04:00:02.174Z,13.80
2023-03-02T04:02:28.631Z,13.63
2023-03-02T04:05:06.519Z,13.55
2023-03-02T04:07:34.438Z,13.43
2023-03-02T04:10:07.726Z,12.65
2023-03-02T04:12:37.873Z,12.87
2023-03-02T04:15:12.671Z,10.85
2023-03-02T04:17:45.785Z,13.40
2023-03-02T04:20:16.606Z,12.43
2023-03-02T04:22:47.887Z,11.82
2023-03-02T04:25:20.542Z,12.43
2023-03-02T04:27:51.639Z,12.40
2023-03-02T04:30:20.715Z,13.48
2023-03-02T04:32:48.968Z,12.50
2023-03-02T04:35:15.769Z,13.10
2023-03-02T04:37:42.806Z,13.27
2023-03-02T04:40:19.088Z,13.65
2023-03-02T04:42:45.659Z,11.77
2023-03-02T04:45:12.952Z,11.77
2023-03-02T04:47:48.719Z,13.20
2023-03-02T04:50:17.894Z,13.17
2023-03-02T04:52:51.421Z,12.75
2023-03-02T04:55:24.296Z,12.70
2023-03-02T04:57:53.567Z,12.38
2023-03-02T05:00:21.050Z,13.43
2023-03-02T05:02:49.524Z,12.97
2023-03-02T05:05:26.147Z,12.25
2023-03-02T05:07:59.308Z,12.13
2023-03-02T05:10:28.771Z,12.80
2023-03-02T05:13:04.706Z,11.93
2023-03-02T05:15:36.570Z,11.67
2023-03-02T05:18:09.461Z,12.18
2023-03-02T05:20:39.576Z,11.48
2023-03-02T05:23:11.192Z,13.35
2023-03-02T05:25:42.780Z,13.10
2023-03-02T05:28:11.987Z,13.73
2023-03-02T05:30:45.148Z,11.55
2023-03-02T05:33:15.318Z,12.98
2023-03-02T05:35:42.706Z,12.45
2023-03-02T05:38:09.487Z,13.45
2023-03-02T05:40:40.035Z,12.43
2023-03-02T05:45:48.792Z,12.57
2023-03-02T05:48:24.250Z,12.55
2023-03-02T05:50:55.660Z,13.38
2023-03-02T05:53:25.156Z,13.40
2023-03-02T05:55:55.585Z,13.90
2023-03-02T05:58:21.989Z,13.82
2023-03-02T06:00:52.161Z,11.30
2023-03-02T06:03:23.781Z,14.32
2023-03-02T06:05:50.882Z,12.50
2023-03-02T06:08:19.350Z,13.80
2023-03-02T06:10:54.059Z,13.57
2023-03-02T06:13:20.537Z,13.52
2023-03-02T06:15:57.008Z,13.48
2023-03-02T06:18:26.082Z,10.67
2023-03-02T06:20:52.500Z,12.88
2023-03-02T06:23:21.791Z,13.27
2023-03-02T06:25:49.923Z,13.07
2023-03-02T06:28:23.231Z,12.75
2023-03-02T06:30:50.562Z,12.33
2023-03-02T06:33:18.950Z,13.30
2023-03-02T06:35:49.089Z,13.35
2023-03-02T06:38:18.736Z,14.27
2023-03-02T06:40:47.614Z,14.48
2023-03-02T06:43:14.198Z,13.80
2023-03-02T06:45:45.078Z,13.30
2023-03-02T06:48:14.737Z,12.90
2023-03-02T06:50:41.145Z,13.30
2023-03-02T06:53:10.413Z,13.30
2023-03-02T06:55:36.883Z,13.87
2023-03-02T06:58:03.369Z,12.80
2023-03-02T07:00:33.249Z,12.38
2023-03-02T07:03:02.482Z,13.23
2023-03-02T07:05:32.465Z,12.65
2023-03-02T07:08:06.623Z,13.40
2023-03-02T07:10:40.148Z,12.85
2023-03-02T07:13:10.577Z,13.07
2023-03-02T07:15:39.912Z,12.80
2023-03-02T07:18:09.243Z,12.27
2023-03-02T07:20:35.875Z,12.87
2023-03-02T07:23:05.130Z,13.27
2023-03-02T07:25:34.352Z,12.30
2023-03-02T07:28:03.413Z,13.10
2023-03-02T07:30:29.880Z,12.95
2023-03-02T07:32:56.274Z,12.80
2023-03-02T07:35:22.688Z,12.40
2023-03-02T07:38:03.317Z,11.75
2023-03-02T07:40:34.031Z,11.98
2023-03-02T07:43:03.461Z,12.45
2023-03-02T07:45:30.126Z,12.50
2023-03-02T07:47:59.875Z,11.35
2023-03-02T07:50:30.702Z,12.38
2023-03-02T07:53:02.067Z,12.30
2023-03-02T07:55:28.665Z,12.07
2023-03-02T07:58:02.505Z,11.90
2023-03-02T08:00:31.608Z,11.27
2023-03-02T08:02:58.036Z,10.48
2023-03-02T08:05:27.844Z,12.10
2023-03-02T08:07:54.247Z,12.00
2023-03-02T08:10:20.720Z,11.47
2023-03-02T08:12:48.243Z,11.30
2023-03-02T08:15:18.270Z,12.55
2023-03-02T08:17:45.086Z,10.60
2023-03-02T08:20:20.680Z,10.20
2023-03-02T08:22:47.157Z,10.63
2023-03-02T08:25:16.146Z,9.77
2023-03-02T08:27:46.502Z,12.50
2023-03-02T08:30:19.431Z,8.68
2023-03-02T08:32:48.812Z,10.00
2023-03-02T08:35:18.591Z,10.07
2023-03-02T08:37:44.985Z,10.18
2023-03-02T08:40:11.706Z,10.63
2023-03-02T08:42:38.195Z,10.38
2023-03-02T08:45:08.101Z,9.57
2023-03-02T08:47:34.483Z,9.53
2023-03-02T08:50:00.880Z,9.15
2023-03-02T08:52:32.645Z,9.52
2023-03-02T08:54:59.055Z,10.32
2023-03-02T08:57:25.523Z,9.90
2023-03-02T08:59:55.437Z,10.03
2023-03-02T09:02:21.824Z,9.80
2023-03-02T09:04:48.445Z,9.88
2023-03-02T09:07:27.867Z,9.10
2023-03-02T09:10:19.180Z,8.90
2023-03-02T09:12:48.808Z,9.93
2023-03-02T09:15:22.707Z,8.43
2023-03-02T09:17:51.906Z,8.73
2023-03-02T09:20:18.296Z,10.05
2023-03-02T09:22:54.262Z,9.55
2023-03-02T09:25:21.030Z,10.67
2023-03-02T09:27:51.500Z,10.20
2023-03-02T09:30:17.955Z,10.27
2023-03-02T09:32:44.562Z,10.27
2023-03-02T09:35:14.646Z,10.23
2023-03-02T09:37:42.267Z,10.40
2023-03-02T09:40:21.489Z,8.75
2023-03-02T09:43:23.142Z,9.57
2023-03-02T09:46:08.265Z,9.25
2023-03-02T09:49:03.194Z,8.32
2023-03-02T09:51:48.707Z,9.53
2023-03-02T09:54:24.277Z,8.60
2023-03-02T09:56:57.868Z,9.05
2023-03-02T09:59:42.493Z,8.82
2023-03-02T10:02:29.448Z,8.90
2023-03-02T10:05:02.218Z,8.87
2023-03-02T10:07:38.579Z,8.18
2023-03-02T10:10:48.236Z,9.30
2023-03-02T10:13:55.516Z,9.63
2023-03-02T10:16:48.436Z,7.82
2023-03-02T10:19:43.646Z,8.73
2023-03-02T10:22:20.150Z,9.70
2023-03-02T10:25:22.438Z,7.75
2023-03-02T10:28:02.120Z,7.07
2023-03-02T10:30:37.582Z,7.35
2023-03-02T10:33:13.602Z,8.30
2023-03-02T10:36:02.084Z,8.00
2023-03-02T10:38:28.745Z,7.13
2023-03-02T10:41:14.691Z,7.97
2023-03-02T10:43:56.222Z,7.53
2023-03-02T10:46:22.715Z,7.57
2023-03-02T10:48:52.967Z,7.88
2023-03-02T10:51:40.233Z,6.97
2023-03-02T10:54:14.392Z,7.25
2023-03-02T10:56:50.563Z,7.97
2023-03-02T10:59:28.791Z,7.23
2023-03-02T11:02:26.007Z,7.10
2023-03-02T11:05:21.393Z,5.80
2023-03-02T11:08:03.233Z,5.80
2023-03-02T11:10:43.455Z,5.35
2023-03-02T11:13:39.240Z,6.13
2023-03-02T11:16:17.807Z,6.15
2023-03-02T11:19:09.256Z,7.15
2023-03-02T11:21:47.260Z,7.85
2023-03-02T11:24:34.727Z,5.65
2023-03-02T11:27:32.998Z,5.80
2023-03-02T11:30:07.077Z,5.97
2023-03-02T11:32:58.059Z,6.30
2023-03-02T11:35:49.631Z,5.68
2023-03-02T11:38:48.786Z,5.18
2023-03-02T11:41:33.678Z,6.03
2023-03-02T11:44:09.808Z,6.13
2023-03-02T11:46:36.316Z,6.05
2023-03-02T11:49:14.745Z,5.13
2023-03-02T11:51:58.330Z,4.45
2023-03-02T11:54:36.710Z,4.90
2023-03-02T11:57:12.069Z,5.45
2023-03-02T11:59:38.650Z,4.93
2023-03-02T12:02:05.386Z,6.15
2023-03-02T12:04:41.042Z,7.35
2023-03-02T12:07:27.096Z,5.77
2023-03-02T12:10:08.252Z,5.97
2023-03-02T12:12:44.043Z,5.00
2023-03-02T12:15:37.602Z,4.95
2023-03-02T12:18:23.213Z,4.82
2023-03-02T12:21:15.337Z,4.70
2023-03-02T12:23:58.403Z,5.20
2023-03-02T12:26:37.857Z,5.45
2023-03-02T12:29:17.777Z,4.60
2023-03-02T12:31:56.841Z,4.80
2023-03-02T12:34:48.546Z,5.30
2023-03-02T12:38:01.667Z,4.63
2023-03-02T12:41:05.530Z,4.05
2023-03-02T12:44:27.829Z,4.57
2023-03-02T12:46:58.782Z,4.85
2023-03-02T12:49:50.078Z,4.70
2023-03-02T12:52:30.969Z,5.03
2023-03-02T12:55:17.248Z,4.00
2023-03-02T12:57:55.560Z,4.07
2023-03-02T13:01:10.708Z,4.35
2023-03-02T13:03:57.744Z,4.70
2023-03-02T13:06:27.983Z,3.75
2023-03-02T13:09:00.337Z,4.13
2023-03-02T13:11:56.375Z,3.70
2023-03-02T13:14:40.096Z,3.58
2023-03-02T13:17:13.879Z,4.33
2023-03-02T13:19:43.224Z,3.90
2023-03-02T13:25:08.204Z,3.33
2023-03-02T13:27:35.164Z,3.70
2023-03-02T13:30:32.623Z,6.30
2023-03-02T13:33:08.977Z,6.47
2023-03-02T13:35:40.256Z,7.00
2023-03-02T13:38:16.097Z,6.40
2023-03-02T13:40:53.723Z,6.18
2023-03-02T13:43:29.297Z,7.00
2023-03-02T13:46:00.910Z,7.05
2023-03-02T13:48:31.190Z,7.32
2023-03-02T13:51:06.034Z,7.50
2023-03-02T13:53:38.667Z,6.80
2023-03-02T13:56:05.288Z,7.23
2023-03-02T13:58:40.795Z,6.88
2023-03-02T14:01:07.673Z,7.85
2023-03-02T14:03:49.765Z,7.88
2023-03-02T14:06:20.986Z,6.65
2023-03-02T14:08:47.425Z,7.65
2023-03-02T14:11:17.893Z,6.33
2023-03-02T14:13:55.017Z,7.60
2023-03-02T14:16:22.578Z,7.32
2023-03-02T14:18:56.301Z,7.25
2023-03-02T14:21:25.840Z,7.85
2023-03-02T14:23:55.411Z,6.57
2023-03-02T14:26:57.209Z,6.78
2023-03-02T14:29:30.353Z,6.07
2023-03-02T14:32:03.938Z,4.82
2023-03-02T14:34:37.065Z,6.70
2023-03-02T14:37:17.310Z,6.63
2023-03-02T14:39:47.710Z,6.97
2023-03-02T14:42:19.410Z,6.95
2023-03-02T14:44:50.850Z,6.90
2023-03-02T14:47:22.062Z,7.38
2023-03-02T14:49:51.636Z,6.17
2023-03-02T14:52:33.568Z,6.13
2023-03-02T14:55:07.436Z,6.63
2023-03-02T14:57:37.750Z,6.10
2023-03-02T15:00:19.880Z,6.53
2023-03-02T15:02:50.908Z,6.37
2023-03-02T15:05:20.473Z,6.32
2023-03-02T15:07:49.818Z,6.60
2023-03-02T15:10:22.263Z,6.47
2023-03-02T15:12:48.896Z,5.78
2023-03-02T15:15:26.175Z,5.93
2023-03-02T15:17:58.185Z,4.97
2023-03-02T15:20:28.832Z,5.93
2023-03-02T15:22:59.892Z,6.03
2023-03-02T15:25:30.016Z,6.47
2023-03-02T15:27:56.855Z,6.77
2023-03-02T15:30:32.671Z,6.80
2023-03-02T15:32:59.544Z,7.40
2023-03-02T15:35:38.070Z,7.03
2023-03-02T15:38:06.394Z,7.07
2023-03-02T15:40:36.418Z,7.50
2023-03-02T15:43:03.322Z,7.38
2023-03-02T15:45:35.828Z,6.25
2023-03-02T15:48:02.251Z,6.72
2023-03-02T15:50:28.644Z,6.25
2023-03-02T15:52:58.586Z,7.10
2023-03-02T15:55:28.050Z,6.53
2023-03-02T15:58:02.771Z,6.13
2023-03-02T16:00:29.235Z,6.63
2023-03-02T16:02:55.775Z,6.18
2023-03-02T16:05:25.071Z,6.13
2023-03-02T16:07:54.265Z,6.13
2023-03-02T16:10:28.460Z,6.38
2023-03-02T16:13:02.320Z,6.07
2023-03-02T16:15:41.098Z,5.55
2023-03-02T16:18:13.488Z,6.70
2023-03-02T16:20:39.877Z,6.40
2023-03-02T16:23:10.235Z,7.03
2023-03-02T16:25:48.356Z,5.78
2023-03-02T16:28:18.440Z,6.35
2023-03-02T16:30:47.627Z,8.07
2023-03-02T16:33:20.517Z,7.22
2023-03-02T16:35:50.350Z,7.47
2023-03-02T16:38:20.809Z,7.22
2023-03-02T16:40:50.656Z,7.70
2023-03-02T16:43:17.241Z,7.80
2023-03-02T16:45:46.325Z,8.25
2023-03-02T16:48:16.523Z,7.85
2023-03-02T16:50:45.207Z,8.68
2023-03-02T16:53:13.500Z,8.52
2023-03-02T16:55:39.914Z,8.60
2023-03-02T16:58:06.723Z,8.63
2023-03-02T17:00:34.861Z,8.98
2023-03-02T17:03:05.435Z,9.55
2023-03-02T17:05:39.437Z,10.48
2023-03-02T17:08:09.981Z,10.37
2023-03-02T17:13:22.734Z,9.48
2023-03-02T17:15:52.072Z,8.13
2023-03-02T17:18:18.687Z,8.55
2023-03-02T17:20:55.351Z,8.27
2023-03-02T17:23:22.714Z,8.48
2023-03-02T17:25:54.376Z,8.43
2023-03-02T17:28:20.773Z,8.77
2023-03-02T17:30:47.941Z,8.23
2023-03-02T17:33:20.300Z,7.57
2023-03-02T17:35:46.828Z,8.07
2023-03-02T17:38:17.074Z,8.48
2023-03-02T17:40:43.525Z,8.27
2023-03-02T17:43:10.239Z,7.38
2023-03-02T17:45:50.008Z,8.37
2023-03-02T17:48:21.609Z,8.13
2023-03-02T17:50:50.789Z,8.20
2023-03-02T17:53:19.359Z,8.40
2023-03-02T17:55:50.893Z,7.47
2023-03-02T17:58:18.721Z,8.03
2023-03-02T18:00:45.208Z,8.65
2023-03-02T18:03:20.660Z,7.57
2023-03-02T18:05:53.512Z,7.72
2023-03-02T18:08:24.103Z,6.07
2023-03-02T18:10:55.043Z,7.50
2023-03-02T18:13:21.443Z,7.68
2023-03-02T18:15:47.857Z,7.38
2023-03-02T18:18:14.916Z,7.50
2023-03-02T18:20:44.607Z,7.78
2023-03-02T18:23:12.892Z,7.47
2023-03-02T18:25:42.543Z,7.95
2023-03-02T18:28:12.165Z,7.72
2023-03-02T18:30:44.628Z,7.22
2023-03-02T18:33:13.952Z,7.10
2023-03-02T18:35:42.743Z,7.90
2023-03-02T18:38:15.491Z,7.45
2023-03-02T18:40:42.069Z,6.93
2023-03-02T18:43:08.479Z,5.10
2023-03-02T18:45:35.327Z,7.03
2023-03-02T18:48:06.254Z,7.30
2023-03-02T18:50:35.118Z,6.32
2023-03-02T18:53:04.479Z,5.65
2023-03-02T18:55:31.088Z,5.97
2023-03-02T18:58:07.631Z,5.78
2023-03-02T19:00:35.191Z,5.77
2023-03-02T19:03:04.663Z,6.18
2023-03-02T19:05:31.144Z,6.15
2023-03-02T19:08:01.358Z,6.35
2023-03-02T19:10:28.202Z,6.25
2023-03-02T19:12:54.556Z,6.27
2023-03-02T19:15:21.024Z,5.85
2023-03-02T19:18:00.761Z,6.10
2023-03-02T19:20:30.209Z,6.68
2023-03-02T19:22:59.761Z,6.88
2023-03-02T19:25:26.325Z,6.50
2023-03-02T19:27:56.790Z,7.30
2023-03-02T19:30:27.455Z,7.25
2023-03-02T19:33:00.375Z,6.75
2023-03-02T19:35:29.204Z,7.70
2023-03-02T19:40:44.669Z,7.55
2023-03-02T19:43:11.140Z,7.20
2023-03-02T19:45:38.096Z,7.55
2023-03-02T19:48:14.019Z,7.32
2023-03-02T19:50:41.081Z,7.23
2023-03-02T19:53:10.202Z,7.50
2023-03-02T19:55:41.933Z,7.25
2023-03-02T19:58:22.471Z,7.75
2023-03-02T20:03:34.992Z,7.93
2023-03-02T20:06:04.703Z,7.05
2023-03-02T20:08:31.474Z,7.80
2023-03-02T20:11:00.744Z,8.65
2023-03-02T20:13:27.363Z,8.10
2023-03-02T20:15:53.752Z,7.63
2023-03-02T20:18:22.477Z,7.97
2023-03-02T20:20:51.864Z,7.90
2023-03-02T20:23:18.664Z,7.10
2023-03-02T20:25:48.477Z,8.95
2023-03-02T20:28:18.294Z,8.53
2023-03-02T20:30:50.595Z,8.77
2023-03-02T20:33:23.774Z,7.63
2023-03-02T20:36:02.083Z,7.82
2023-03-02T20:38:35.553Z,8.23
2023-03-02T20:41:03.518Z,8.80
2023-03-02T20:43:30.504Z,9.02
2023-03-02T20:46:00.386Z,8.90
2023-03-02T20:48:27.622Z,8.82
2023-03-02T20:50:54.332Z,9.13
2023-03-02T20:53:24.703Z,10.30
2023-03-02T20:55:51.140Z,11.18
2023-03-02T20:58:17.951Z,10.00
2023-03-02T21:00:47.678Z,10.13
2023-03-02T21:03:15.219Z,10.65
2023-03-02T21:05:42.366Z,11.03
2023-03-02T21:08:18.067Z,9.88
2023-03-02T21:10:45.050Z,11.07
2023-03-02T21:13:22.431Z,11.80
2023-03-02T21:15:53.915Z,10.57
2023-03-02T21:18:23.226Z,11.23
2023-03-02T21:20:49.657Z,11.73
2023-03-02T21:23:20.226Z,12.50
2023-03-02T21:25:47.238Z,11.93
2023-03-02T21:28:13.966Z,13.13
2023-03-02T21:30:44.637Z,13.07
2023-03-02T21:33:11.038Z,13.07
2023-03-02T21:35:37.707Z,11.75
2023-03-02T21:38:07.080Z,13.45
2023-03-02T21:40:44.980Z,12.45
2023-03-02T21:43:15.517Z,12.87
2023-03-02T21:45:42.415Z,12.27
2023-03-02T21:48:11.294Z,12.90
2023-03-02T21:50:42.289Z,12.98
2023-03-02T21:55:55.577Z,12.33
2023-03-02T21:58:25.690Z,13.98
2023-03-02T22:00:52.060Z,12.77
2023-03-02T22:03:18.470Z,13.05
2023-03-02T22:05:44.946Z,13.63
2023-03-02T22:08:21.837Z,12.63
2023-03-02T22:10:52.916Z,13.35
2023-03-02T22:16:41.232Z,13.48
2023-03-02T22:19:26.813Z,13.02
2023-03-02T22:22:02.262Z,14.13
2023-03-02T22:24:30.790Z,13.35
2023-03-02T22:27:05.531Z,12.73
2023-03-02T22:29:47.480Z,12.52
2023-03-02T22:32:28.067Z,12.20
2023-03-02T22:35:02.582Z,11.47
2023-03-02T22:37:35.399Z,12.07
2023-03-02T22:40:27.279Z,11.73
2023-03-02T22:43:17.877Z,11.32
2023-03-02T22:45:44.341Z,11.20
2023-03-02T22:48:19.413Z,11.30
2023-03-02T22:50:52.530Z,11.77
2023-03-02T22:53:33.623Z,10.20
2023-03-02T22:56:44.901Z,10.23
2023-03-02T22:59:21.746Z,9.95
2023-03-02T23:01:48.773Z,10.20
2023-03-02T23:04:41.382Z,9.85
2023-03-02T23:07:20.017Z,9.60
2023-03-02T23:09:49.649Z,9.55
2023-03-02T23:12:30.430Z,9.52
2023-03-02T23:14:58.851Z,10.57
2023-03-02T23:17:35.504Z,9.05
2023-03-02T23:20:08.266Z,8.77
2023-03-02T23:22:38.952Z,8.48
2023-03-02T23:25:10.562Z,9.57
2023-03-02T23:27:39.879Z,8.63
2023-03-02T23:30:06.772Z,9.23
2023-03-02T23:32:34.119Z,9.00
2023-03-02T23:35:03.663Z,8.88
2023-03-02T23:37:30.099Z,9.63
2023-03-02T23:40:01.747Z,8.03
2023-03-02T23:42:31.950Z,8.18
2023-03-02T23:45:02.689Z,8.52
2023-03-02T23:47:32.238Z,8.60
2023-03-02T23:50:03.158Z,8.27
2023-03-02T23:52:33.031Z,8.43
2023-03-02T23:54:59.396Z,8.60
2023-03-02T23:57:31.488Z,7.80
